sensor_id;sensor_type;location;lat;lon;timestamp;pressure;altitude;pressure_sealevel;temperature;humidity
71974;BME280;59840;52.122;5.404;2023-07-02T00:02:04;100787.06;;;15.99;99.19
71974;BME280;59840;52.122;5.404;2023-07-02T00:04:31;100777.50;;;15.98;99.70
71974;BME280;59840;52.122;5.404;2023-07-02T00:06:57;100770.38;;;15.94;100.00
71974;BME280;59840;52.122;5.404;2023-07-02T00:09:25;100757.13;;;15.89;100.00
71974;BME280;59840;52.122;5.404;2023-07-02T00:11:51;100766.50;;;15.81;100.00
71974;BME280;59840;52.122;5.404;2023-07-02T00:14:18;100776.63;;;15.79;100.00
71974;BME280;59840;52.122;5.404;2023-07-02T00:16:45;100776.91;;;15.78;100.00
71974;BME280;59840;52.122;5.404;2023-07-02T00:19:16;100780.88;;;15.80;100.00
71974;BME280;59840;52.122;5.404;2023-07-02T00:21:43;100793.66;;;15.78;100.00
71974;BME280;59840;52.122;5.404;2023-07-02T00:24:10;100799.00;;;15.78;100.00
71974;BME280;59840;52.122;5.404;2023-07-02T00:26:37;100800.56;;;15.79;100.00
71974;BME280;59840;52.122;5.404;2023-07-02T00:29:05;100810.44;;;15.79;100.00
71974;BME280;59840;52.122;5.404;2023-07-02T00:31:32;100797.41;;;15.77;100.00
71974;BME280;59840;52.122;5.404;2023-07-02T00:34:00;100802.16;;;15.80;100.00
71974;BME280;59840;52.122;5.404;2023-07-02T00:36:31;100804.56;;;15.82;100.00
71974;BME280;59840;52.122;5.404;2023-07-02T00:38:58;100799.75;;;15.84;100.00
71974;BME280;59840;52.122;5.404;2023-07-02T00:41:25;100799.22;;;15.82;100.00
71974;BME280;59840;52.122;5.404;2023-07-02T00:43:51;100802.69;;;15.82;100.00
71974;BME280;59840;52.122;5.404;2023-07-02T00:46:22;100805.38;;;15.77;100.00
71974;BME280;59840;52.122;5.404;2023-07-02T00:48:50;100813.41;;;15.72;100.00
71974;BME280;59840;52.122;5.404;2023-07-02T00:51:20;100810.75;;;15.72;100.00
71974;BME280;59840;52.122;5.404;2023-07-02T00:53:48;100810.19;;;15.75;100.00
71974;BME280;59840;52.122;5.404;2023-07-02T00:56:16;100808.69;;;15.64;100.00
71974;BME280;59840;52.122;5.404;2023-07-02T00:58:47;100812.41;;;15.63;100.00
71974;BME280;59840;52.122;5.404;2023-07-02T01:01:15;100809.75;;;15.63;100.00
71974;BME280;59840;52.122;5.404;2023-07-02T01:03:52;100816.13;;;15.62;100.00
71974;BME280;59840;52.122;5.404;2023-07-02T01:06:23;100819.06;;;15.60;100.00
71974;BME280;59840;52.122;5.404;2023-07-02T01:09:00;100818.88;;;15.57;100.00
71974;BME280;59840;52.122;5.404;2023-07-02T01:11:30;100814.06;;;15.54;100.00
71974;BME280;59840;52.122;5.404;2023-07-02T01:14:19;100812.75;;;15.51;100.00
71974;BME280;59840;52.122;5.404;2023-07-02T01:16:48;100816.75;;;15.49;100.00
71974;BME280;59840;52.122;5.404;2023-07-02T01:19:22;100815.19;;;15.42;100.00
71974;BME280;59840;52.122;5.404;2023-07-02T01:21:51;100818.94;;;15.41;100.00
71974;BME280;59840;52.122;5.404;2023-07-02T01:24:18;100818.97;;;15.36;100.00
71974;BME280;59840;52.122;5.404;2023-07-02T01:26:47;100817.66;;;15.29;100.00
71974;BME280;59840;52.122;5.404;2023-07-02T01:29:19;100817.41;;;15.25;100.00
71974;BME280;59840;52.122;5.404;2023-07-02T01:31:47;100816.47;;;15.11;100.00
71974;BME280;59840;52.122;5.404;2023-07-02T01:34:14;100822.88;;;15.05;100.00
71974;BME280;59840;52.122;5.404;2023-07-02T01:36:41;100819.16;;;15.01;100.00
71974;BME280;59840;52.122;5.404;2023-07-02T01:39:07;100821.56;;;14.97;100.00
71974;BME280;59840;52.122;5.404;2023-07-02T01:41:42;100824.50;;;14.96;100.00
71974;BME280;59840;52.122;5.404;2023-07-02T01:44:09;100822.66;;;14.91;100.00
71974;BME280;59840;52.122;5.404;2023-07-02T01:46:35;100821.41;;;14.84;99.99
71974;BME280;59840;52.122;5.404;2023-07-02T01:49:02;100825.41;;;14.76;99.41
71974;BME280;59840;52.122;5.404;2023-07-02T01:51:29;100821.97;;;14.70;99.81
71974;BME280;59840;52.122;5.404;2023-07-02T01:53:55;100827.81;;;14.67;99.22
71974;BME280;59840;52.122;5.404;2023-07-02T01:56:22;100830.50;;;14.62;99.10
71974;BME280;59840;52.122;5.404;2023-07-02T01:58:48;100822.25;;;14.59;99.08
71974;BME280;59840;52.122;5.404;2023-07-02T02:01:15;100830.81;;;14.51;98.02
71974;BME280;59840;52.122;5.404;2023-07-02T02:03:41;100832.94;;;14.49;98.94
71974;BME280;59840;52.122;5.404;2023-07-02T02:06:08;100830.56;;;14.42;98.03
71974;BME280;59840;52.122;5.404;2023-07-02T02:08:35;100834.78;;;14.38;97.80
71974;BME280;59840;52.122;5.404;2023-07-02T02:11:01;100839.03;;;14.39;98.38
71974;BME280;59840;52.122;5.404;2023-07-02T02:13:28;100837.44;;;14.38;97.60
71974;BME280;59840;52.122;5.404;2023-07-02T02:15:55;100836.38;;;14.29;97.74
71974;BME280;59840;52.122;5.404;2023-07-02T02:18:21;100835.06;;;14.26;97.58
71974;BME280;59840;52.122;5.404;2023-07-02T02:20:48;100836.66;;;14.22;97.94
71974;BME280;59840;52.122;5.404;2023-07-02T02:23:16;100838.56;;;14.17;97.23
71974;BME280;59840;52.122;5.404;2023-07-02T02:25:42;100835.63;;;14.08;98.18
71974;BME280;59840;52.122;5.404;2023-07-02T02:28:09;100836.69;;;13.97;97.22
71974;BME280;59840;52.122;5.404;2023-07-02T02:30:36;100842.81;;;13.92;97.45
71974;BME280;59840;52.122;5.404;2023-07-02T02:33:03;100841.75;;;13.93;97.83
71974;BME280;59840;52.122;5.404;2023-07-02T02:35:29;100842.81;;;13.92;99.10
71974;BME280;59840;52.122;5.404;2023-07-02T02:37:56;100848.09;;;13.87;97.71
71974;BME280;59840;52.122;5.404;2023-07-02T02:40:23;100853.69;;;13.81;98.00
71974;BME280;59840;52.122;5.404;2023-07-02T02:42:49;100847.06;;;13.78;97.79
71974;BME280;59840;52.122;5.404;2023-07-02T02:45:16;100849.97;;;13.71;97.26
71974;BME280;59840;52.122;5.404;2023-07-02T02:47:42;100851.31;;;13.74;98.47
71974;BME280;59840;52.122;5.404;2023-07-02T02:50:12;100858.19;;;13.70;97.06
71974;BME280;59840;52.122;5.404;2023-07-02T02:52:39;100860.56;;;13.56;96.96
71974;BME280;59840;52.122;5.404;2023-07-02T02:55:06;100854.72;;;13.54;96.58
71974;BME280;59840;52.122;5.404;2023-07-02T02:57:34;100858.69;;;13.52;96.98
71974;BME280;59840;52.122;5.404;2023-07-02T03:00:00;100850.75;;;13.47;97.94
71974;BME280;59840;52.122;5.404;2023-07-02T03:02:27;100858.19;;;13.50;97.22
71974;BME280;59840;52.122;5.404;2023-07-02T03:04:54;100862.16;;;13.47;96.80
71974;BME280;59840;52.122;5.404;2023-07-02T03:07:23;100862.41;;;13.46;97.38
71974;BME280;59840;52.122;5.404;2023-07-02T03:09:49;100866.66;;;13.47;97.48
71974;BME280;59840;52.122;5.404;2023-07-02T03:12:16;100865.34;;;13.49;97.58
71974;BME280;59840;52.122;5.404;2023-07-02T03:14:42;100860.03;;;13.49;98.22
71974;BME280;59840;52.122;5.404;2023-07-02T03:17:09;100864.53;;;13.49;98.02
71974;BME280;59840;52.122;5.404;2023-07-02T03:19:36;100871.97;;;13.47;98.19
71974;BME280;59840;52.122;5.404;2023-07-02T03:22:02;100878.31;;;13.51;98.22
71974;BME280;59840;52.122;5.404;2023-07-02T03:24:29;100875.38;;;13.52;97.87
71974;BME280;59840;52.122;5.404;2023-07-02T03:26:55;100870.88;;;13.53;98.30
71974;BME280;59840;52.122;5.404;2023-07-02T03:29:22;100876.47;;;13.51;97.99
71974;BME280;59840;52.122;5.404;2023-07-02T03:31:48;100870.88;;;13.53;99.15
71974;BME280;59840;52.122;5.404;2023-07-02T03:34:15;100875.13;;;13.49;98.24
71974;BME280;59840;52.122;5.404;2023-07-02T03:36:42;100883.34;;;13.52;98.49
71974;BME280;59840;52.122;5.404;2023-07-02T03:39:08;100877.78;;;13.49;98.72
71974;BME280;59840;52.122;5.404;2023-07-02T03:41:36;100882.03;;;13.45;97.80
71974;BME280;59840;52.122;5.404;2023-07-02T03:44:03;100887.31;;;13.39;97.96
71974;BME280;59840;52.122;5.404;2023-07-02T03:46:29;100888.91;;;13.40;98.29
71974;BME280;59840;52.122;5.404;2023-07-02T03:48:57;100885.72;;;13.38;98.37
71974;BME280;59840;52.122;5.404;2023-07-02T03:51:24;100892.06;;;13.37;97.56
71974;BME280;59840;52.122;5.404;2023-07-02T03:53:51;100897.38;;;13.37;98.42
71974;BME280;59840;52.122;5.404;2023-07-02T03:56:17;100890.22;;;13.38;99.82
71974;BME280;59840;52.122;5.404;2023-07-02T03:58:44;100903.22;;;13.39;99.33
71974;BME280;59840;52.122;5.404;2023-07-02T04:01:11;100898.97;;;13.44;99.35
71974;BME280;59840;52.122;5.404;2023-07-02T04:03:48;100893.97;;;13.47;98.66
71974;BME280;59840;52.122;5.404;2023-07-02T04:06:16;100905.34;;;13.53;98.77
71974;BME280;59840;52.122;5.404;2023-07-02T04:08:43;100911.19;;;13.55;97.86
71974;BME280;59840;52.122;5.404;2023-07-02T04:11:11;100904.81;;;13.56;97.68
71974;BME280;59840;52.122;5.404;2023-07-02T04:13:38;100905.91;;;13.65;98.60
71974;BME280;59840;52.122;5.404;2023-07-02T04:16:05;100903.81;;;13.72;97.00
71974;BME280;59840;52.122;5.404;2023-07-02T04:18:32;100897.19;;;13.74;97.23
71974;BME280;59840;52.122;5.404;2023-07-02T04:21:01;100904.63;;;13.78;96.50
71974;BME280;59840;52.122;5.404;2023-07-02T04:23:28;100918.91;;;13.87;96.28
71974;BME280;59840;52.122;5.404;2023-07-02T04:25:55;100912.31;;;13.94;95.40
71974;BME280;59840;52.122;5.404;2023-07-02T04:28:42;100920.00;;;14.01;95.65
71974;BME280;59840;52.122;5.404;2023-07-02T04:31:08;100913.63;;;14.02;95.37
71974;BME280;59840;52.122;5.404;2023-07-02T04:33:35;100918.69;;;14.03;94.52
71974;BME280;59840;52.122;5.404;2023-07-02T04:36:03;100912.06;;;14.11;94.27
71974;BME280;59840;52.122;5.404;2023-07-02T04:38:30;100926.09;;;14.22;94.35
71974;BME280;59840;52.122;5.404;2023-07-02T04:40:57;100925.56;;;14.30;94.05
71974;BME280;59840;52.122;5.404;2023-07-02T04:43:32;100925.56;;;14.40;93.61
71974;BME280;59840;52.122;5.404;2023-07-02T04:46:00;100930.91;;;14.45;93.26
71974;BME280;59840;52.122;5.404;2023-07-02T04:48:26;100933.56;;;14.50;92.89
71974;BME280;59840;52.122;5.404;2023-07-02T04:50:54;100936.22;;;14.55;92.68
71974;BME280;59840;52.122;5.404;2023-07-02T04:53:20;100924.50;;;14.61;92.34
71974;BME280;59840;52.122;5.404;2023-07-02T04:55:47;100925.56;;;14.65;92.25
71974;BME280;59840;52.122;5.404;2023-07-02T04:58:13;100935.66;;;14.68;92.44
71974;BME280;59840;52.122;5.404;2023-07-02T05:00:40;100940.41;;;14.71;92.15
71974;BME280;59840;52.122;5.404;2023-07-02T05:03:06;100940.41;;;14.77;92.67
71974;BME280;59840;52.122;5.404;2023-07-02T05:05:33;100946.50;;;14.82;91.83
71974;BME280;59840;52.122;5.404;2023-07-02T05:08:00;100945.44;;;14.83;91.87
71974;BME280;59840;52.122;5.404;2023-07-02T05:10:26;100948.59;;;14.90;92.05
71974;BME280;59840;52.122;5.404;2023-07-02T05:12:53;100944.34;;;14.94;91.17
71974;BME280;59840;52.122;5.404;2023-07-02T05:15:19;100940.59;;;15.05;91.54
71974;BME280;59840;52.122;5.404;2023-07-02T05:17:46;100947.75;;;15.10;90.99
71974;BME280;59840;52.122;5.404;2023-07-02T05:20:13;100950.38;;;15.20;90.67
71974;BME280;59840;52.122;5.404;2023-07-02T05:22:39;100947.66;;;15.30;89.68
71974;BME280;59840;52.122;5.404;2023-07-02T05:25:06;100951.47;;;15.73;88.42
71974;BME280;59840;52.122;5.404;2023-07-02T05:27:33;100941.56;;;16.18;85.49
71974;BME280;59840;52.122;5.404;2023-07-02T05:29:59;100954.03;;;15.89;85.77
71974;BME280;59840;52.122;5.404;2023-07-02T05:32:26;100948.81;;;15.68;85.99
71974;BME280;59840;52.122;5.404;2023-07-02T05:34:52;100945.16;;;15.54;87.31
71974;BME280;59840;52.122;5.404;2023-07-02T05:37:19;100953.44;;;15.48;87.45
71974;BME280;59840;52.122;5.404;2023-07-02T05:39:46;100963.56;;;15.40;87.85
71974;BME280;59840;52.122;5.404;2023-07-02T05:42:12;100968.34;;;15.43;89.11
71974;BME280;59840;52.122;5.404;2023-07-02T05:44:39;100968.91;;;15.40;88.59
71974;BME280;59840;52.122;5.404;2023-07-02T05:47:05;100959.84;;;15.41;88.39
71974;BME280;59840;52.122;5.404;2023-07-02T05:49:32;100959.84;;;15.41;89.04
71974;BME280;59840;52.122;5.404;2023-07-02T05:51:59;100964.38;;;15.41;88.70
71974;BME280;59840;52.122;5.404;2023-07-02T05:54:26;100972.06;;;15.42;88.91
71974;BME280;59840;52.122;5.404;2023-07-02T05:56:52;100970.22;;;15.43;87.77
71974;BME280;59840;52.122;5.404;2023-07-02T05:59:19;100969.69;;;15.41;87.98
71974;BME280;59840;52.122;5.404;2023-07-02T06:01:45;100978.19;;;15.43;88.48
71974;BME280;59840;52.122;5.404;2023-07-02T06:04:12;100976.88;;;15.40;87.61
71974;BME280;59840;52.122;5.404;2023-07-02T06:06:39;100979.00;;;15.38;88.16
71974;BME280;59840;52.122;5.404;2023-07-02T06:09:05;100983.00;;;15.41;87.52
71974;BME280;59840;52.122;5.404;2023-07-02T06:11:32;100978.72;;;15.40;87.16
71974;BME280;59840;52.122;5.404;2023-07-02T06:14:17;100981.13;;;15.41;87.37
71974;BME280;59840;52.122;5.404;2023-07-02T06:17:18;100989.09;;;15.41;87.28
71974;BME280;59840;52.122;5.404;2023-07-02T06:19:45;100984.81;;;15.51;86.80
71974;BME280;59840;52.122;5.404;2023-07-02T06:22:11;100989.59;;;15.54;85.82
71974;BME280;59840;52.122;5.404;2023-07-02T06:24:38;100992.72;;;15.66;86.37
71974;BME280;59840;52.122;5.404;2023-07-02T06:27:04;100988.22;;;15.66;85.02
71974;BME280;59840;52.122;5.404;2023-07-02T06:29:31;100992.97;;;15.69;84.33
71974;BME280;59840;52.122;5.404;2023-07-02T06:31:59;100997.75;;;15.72;84.72
71974;BME280;59840;52.122;5.404;2023-07-02T06:34:26;101006.50;;;15.78;84.22
71974;BME280;59840;52.122;5.404;2023-07-02T06:36:52;100998.75;;;15.87;85.04
71974;BME280;59840;52.122;5.404;2023-07-02T06:39:19;101000.09;;;15.84;83.11
71974;BME280;59840;52.122;5.404;2023-07-02T06:41:46;100997.72;;;15.83;83.05
71974;BME280;59840;52.122;5.404;2023-07-02T06:44:12;101007.84;;;15.81;86.20
71974;BME280;59840;52.122;5.404;2023-07-02T06:46:39;101006.25;;;15.74;82.01
71974;BME280;59840;52.122;5.404;2023-07-02T06:49:06;101008.69;;;15.66;81.67
71974;BME280;59840;52.122;5.404;2023-07-02T06:51:33;101017.75;;;15.65;81.63
71974;BME280;59840;52.122;5.404;2023-07-02T06:54:00;101012.34;;;15.80;81.69
71974;BME280;59840;52.122;5.404;2023-07-02T06:56:27;101017.63;;;15.90;82.34
71974;BME280;59840;52.122;5.404;2023-07-02T06:58:53;101018.66;;;15.94;81.17
71974;BME280;59840;52.122;5.404;2023-07-02T07:01:20;101020.19;;;16.05;79.38
71974;BME280;59840;52.122;5.404;2023-07-02T07:03:46;101031.94;;;15.94;79.08
71974;BME280;59840;52.122;5.404;2023-07-02T07:06:13;101029.00;;;15.96;78.54
71974;BME280;59840;52.122;5.404;2023-07-02T07:08:40;101043.59;;;16.08;79.36
71974;BME280;59840;52.122;5.404;2023-07-02T07:11:06;101047.28;;;16.18;79.06
71974;BME280;59840;52.122;5.404;2023-07-02T07:13:33;101045.91;;;16.25;78.11
71974;BME280;59840;52.122;5.404;2023-07-02T07:15:59;101045.53;;;16.37;75.62
71974;BME280;59840;52.122;5.404;2023-07-02T07:18:26;101048.78;;;16.29;74.50
71974;BME280;59840;52.122;5.404;2023-07-02T07:20:56;101048.78;;;16.29;75.03
71974;BME280;59840;52.122;5.404;2023-07-02T07:23:23;101052.19;;;16.34;73.06
71974;BME280;59840;52.122;5.404;2023-07-02T07:25:49;101045.81;;;16.35;75.42
71974;BME280;59840;52.122;5.404;2023-07-02T07:28:16;101048.44;;;16.40;75.89
71974;BME280;59840;52.122;5.404;2023-07-02T07:30:43;101060.84;;;16.55;74.85
71974;BME280;59840;52.122;5.404;2023-07-02T07:33:10;101063.72;;;16.64;72.14
71974;BME280;59840;52.122;5.404;2023-07-02T07:35:36;101063.78;;;16.54;71.79
71974;BME280;59840;52.122;5.404;2023-07-02T07:38:03;101068.13;;;16.45;72.03
71974;BME280;59840;52.122;5.404;2023-07-02T07:40:30;101069.41;;;16.52;73.77
71974;BME280;59840;52.122;5.404;2023-07-02T07:42:56;101069.09;;;16.59;73.26
71974;BME280;59840;52.122;5.404;2023-07-02T07:45:23;101071.47;;;16.60;71.55
71974;BME280;59840;52.122;5.404;2023-07-02T07:47:49;101075.19;;;16.64;72.48
71974;BME280;59840;52.122;5.404;2023-07-02T07:50:16;101066.34;;;16.69;72.13
71974;BME280;59840;52.122;5.404;2023-07-02T07:52:43;101068.63;;;16.86;70.63
71974;BME280;59840;52.122;5.404;2023-07-02T07:55:09;101070.13;;;16.97;70.67
71974;BME280;59840;52.122;5.404;2023-07-02T07:57:37;101070.63;;;16.99;68.32
71974;BME280;59840;52.122;5.404;2023-07-02T08:00:04;101079.03;;;16.82;69.91
71974;BME280;59840;52.122;5.404;2023-07-02T08:02:34;101073.28;;;16.70;68.64
71974;BME280;59840;52.122;5.404;2023-07-02T08:05:01;101082.69;;;16.57;67.14
71974;BME280;59840;52.122;5.404;2023-07-02T08:07:29;101086.38;;;16.61;67.02
71974;BME280;59840;52.122;5.404;2023-07-02T08:09:55;101080.47;;;16.69;68.53
71974;BME280;59840;52.122;5.404;2023-07-02T08:12:22;101081.16;;;16.85;67.14
71974;BME280;59840;52.122;5.404;2023-07-02T08:14:49;101085.50;;;17.05;67.37
71974;BME280;59840;52.122;5.404;2023-07-02T08:17:15;101094.72;;;17.18;67.56
71974;BME280;59840;52.122;5.404;2023-07-02T08:19:42;101082.16;;;17.18;63.89
71974;BME280;59840;52.122;5.404;2023-07-02T08:22:08;101080.13;;;17.10;64.17
71974;BME280;59840;52.122;5.404;2023-07-02T08:24:35;101092.94;;;17.08;64.98
71974;BME280;59840;52.122;5.404;2023-07-02T08:27:02;101100.97;;;17.03;63.60
71974;BME280;59840;52.122;5.404;2023-07-02T08:29:31;101086.75;;;17.13;64.58
71974;BME280;59840;52.122;5.404;2023-07-02T08:31:58;101101.34;;;17.20;67.39
71974;BME280;59840;52.122;5.404;2023-07-02T08:34:25;101100.09;;;17.36;63.59
71974;BME280;59840;52.122;5.404;2023-07-02T08:36:52;101098.91;;;17.24;61.68
71974;BME280;59840;52.122;5.404;2023-07-02T08:39:18;101101.91;;;17.17;61.64
71974;BME280;59840;52.122;5.404;2023-07-02T08:41:46;101106.22;;;17.13;61.26
71974;BME280;59840;52.122;5.404;2023-07-02T08:44:19;101104.47;;;16.98;61.75
71974;BME280;59840;52.122;5.404;2023-07-02T08:46:47;101108.69;;;17.04;65.83
71974;BME280;59840;52.122;5.404;2023-07-02T08:49:17;101101.34;;;17.20;61.59
71974;BME280;59840;52.122;5.404;2023-07-02T08:51:45;101115.69;;;17.29;59.95
71974;BME280;59840;52.122;5.404;2023-07-02T08:54:12;101108.19;;;17.55;61.77
71974;BME280;59840;52.122;5.404;2023-07-02T08:56:39;101114.38;;;17.51;61.50
71974;BME280;59840;52.122;5.404;2023-07-02T08:59:07;101123.41;;;17.55;61.14
71974;BME280;59840;52.122;5.404;2023-07-02T09:01:54;101112.19;;;17.82;61.68
71974;BME280;59840;52.122;5.404;2023-07-02T09:04:25;101112.28;;;17.71;60.95
71974;BME280;59840;52.122;5.404;2023-07-02T09:07:05;101114.25;;;17.61;61.60
71974;BME280;59840;52.122;5.404;2023-07-02T09:09:33;101121.72;;;17.64;60.57
71974;BME280;59840;52.122;5.404;2023-07-02T09:12:00;101127.44;;;17.76;61.77
71974;BME280;59840;52.122;5.404;2023-07-02T09:14:31;101123.06;;;17.61;60.25
71974;BME280;59840;52.122;5.404;2023-07-02T09:17:15;101130.19;;;17.42;62.25
71974;BME280;59840;52.122;5.404;2023-07-02T09:19:51;101124.41;;;17.35;62.19
71974;BME280;59840;52.122;5.404;2023-07-02T09:22:18;101134.00;;;17.65;59.30
71974;BME280;59840;52.122;5.404;2023-07-02T09:24:55;101115.97;;;17.99;61.27
71974;BME280;59840;52.122;5.404;2023-07-02T09:27:40;101121.69;;;18.30;59.40
71974;BME280;59840;52.122;5.404;2023-07-02T09:30:14;101125.94;;;18.31;57.69
71974;BME280;59840;52.122;5.404;2023-07-02T09:32:45;101117.06;;;18.36;55.28
71974;BME280;59840;52.122;5.404;2023-07-02T09:35:13;101120.66;;;18.45;54.47
71974;BME280;59840;52.122;5.404;2023-07-02T09:37:44;101114.78;;;18.67;54.97
71974;BME280;59840;52.122;5.404;2023-07-02T09:40:11;101122.59;;;18.77;53.58
71974;BME280;59840;52.122;5.404;2023-07-02T09:42:39;101124.97;;;18.65;53.30
71974;BME280;59840;52.122;5.404;2023-07-02T09:45:08;101112.72;;;18.59;50.98
71974;BME280;59840;52.122;5.404;2023-07-02T09:47:38;101127.53;;;18.32;52.67
71974;BME280;59840;52.122;5.404;2023-07-02T09:50:09;101121.97;;;18.29;54.40
71974;BME280;59840;52.122;5.404;2023-07-02T09:52:37;101124.63;;;18.48;54.21
71974;BME280;59840;52.122;5.404;2023-07-02T09:55:04;101124.28;;;18.54;58.44
71974;BME280;59840;52.122;5.404;2023-07-02T09:57:31;101126.66;;;18.74;53.12
71974;BME280;59840;52.122;5.404;2023-07-02T10:00:00;101120.06;;;18.86;53.37
71974;BME280;59840;52.122;5.404;2023-07-02T10:02:27;101116.13;;;18.64;50.28
71974;BME280;59840;52.122;5.404;2023-07-02T10:04:53;101118.25;;;18.67;50.49
71974;BME280;59840;52.122;5.404;2023-07-02T10:07:29;101117.22;;;18.63;50.85
71974;BME280;59840;52.122;5.404;2023-07-02T10:09:56;101134.53;;;18.85;52.56
71974;BME280;59840;52.122;5.404;2023-07-02T10:12:29;101123.53;;;18.86;50.85
71974;BME280;59840;52.122;5.404;2023-07-02T10:14:58;101127.06;;;18.68;49.45
71974;BME280;59840;52.122;5.404;2023-07-02T10:17:28;101126.09;;;18.59;49.43
71974;BME280;59840;52.122;5.404;2023-07-02T10:20:00;101138.44;;;18.36;47.18
71974;BME280;59840;52.122;5.404;2023-07-02T10:22:27;101143.94;;;18.26;47.60
71974;BME280;59840;52.122;5.404;2023-07-02T10:24:58;101138.50;;;18.31;47.63
71974;BME280;59840;52.122;5.404;2023-07-02T10:27:47;101135.84;;;18.31;47.97
71974;BME280;59840;52.122;5.404;2023-07-02T10:30:14;101143.19;;;18.39;47.86
71974;BME280;59840;52.122;5.404;2023-07-02T10:32:43;101145.25;;;18.66;49.01
71974;BME280;59840;52.122;5.404;2023-07-02T10:35:15;101144.06;;;18.91;48.66
71974;BME280;59840;52.122;5.404;2023-07-02T10:37:42;101142.69;;;19.07;48.07
71974;BME280;59840;52.122;5.404;2023-07-02T10:40:10;101148.66;;;19.04;48.03
71974;BME280;59840;52.122;5.404;2023-07-02T10:42:48;101149.91;;;18.93;49.08
71974;BME280;59840;52.122;5.404;2023-07-02T10:45:16;101148.47;;;18.82;47.47
71974;BME280;59840;52.122;5.404;2023-07-02T10:47:43;101151.56;;;18.89;48.33
71974;BME280;59840;52.122;5.404;2023-07-02T10:50:16;101143.44;;;19.26;49.25
71974;BME280;59840;52.122;5.404;2023-07-02T10:52:43;101150.94;;;19.57;50.82
71974;BME280;59840;52.122;5.404;2023-07-02T10:55:10;101152.13;;;19.51;50.58
71974;BME280;59840;52.122;5.404;2023-07-02T10:57:36;101153.81;;;19.60;54.26
71974;BME280;59840;52.122;5.404;2023-07-02T11:00:04;101155.13;;;19.63;51.36
71974;BME280;59840;52.122;5.404;2023-07-02T11:02:38;101158.41;;;19.41;52.69
71974;BME280;59840;52.122;5.404;2023-07-02T11:05:05;101161.75;;;19.19;50.79
71974;BME280;59840;52.122;5.404;2023-07-02T11:07:33;101154.97;;;19.08;52.93
71974;BME280;59840;52.122;5.404;2023-07-02T11:10:00;101162.84;;;19.18;52.04
71974;BME280;59840;52.122;5.404;2023-07-02T11:12:31;101161.84;;;19.14;50.94
71974;BME280;59840;52.122;5.404;2023-07-02T11:15:12;101171.16;;;18.84;50.42
71974;BME280;59840;52.122;5.404;2023-07-02T11:17:39;101172.78;;;18.66;49.64
71974;BME280;59840;52.122;5.404;2023-07-02T11:20:10;101167.97;;;18.82;52.46
71974;BME280;59840;52.122;5.404;2023-07-02T11:22:38;101168.34;;;18.94;51.78
71974;BME280;59840;52.122;5.404;2023-07-02T11:25:18;101162.22;;;19.07;52.73
71974;BME280;59840;52.122;5.404;2023-07-02T11:27:48;101170.94;;;19.13;52.81
71974;BME280;59840;52.122;5.404;2023-07-02T11:30:28;101167.69;;;19.02;50.48
71974;BME280;59840;52.122;5.404;2023-07-02T11:33:07;101175.50;;;19.13;51.90
71974;BME280;59840;52.122;5.404;2023-07-02T11:35:36;101166.16;;;19.42;49.22
71974;BME280;59840;52.122;5.404;2023-07-02T11:38:03;101173.38;;;19.61;49.64
71974;BME280;59840;52.122;5.404;2023-07-02T11:40:34;101170.88;;;19.78;51.52
71974;BME280;59840;52.122;5.404;2023-07-02T11:43:01;101174.16;;;19.89;49.36
71974;BME280;59840;52.122;5.404;2023-07-02T11:45:30;101159.88;;;19.93;48.23
71974;BME280;59840;52.122;5.404;2023-07-02T11:47:59;101162.41;;;20.12;51.01
71974;BME280;59840;52.122;5.404;2023-07-02T11:50:26;101164.38;;;20.34;48.21
71974;BME280;59840;52.122;5.404;2023-07-02T11:52:53;101170.91;;;20.55;48.53
71974;BME280;59840;52.122;5.404;2023-07-02T11:55:22;101171.94;;;20.68;47.18
71974;BME280;59840;52.122;5.404;2023-07-02T11:57:54;101158.97;;;20.61;47.37
71974;BME280;59840;52.122;5.404;2023-07-02T12:00:26;101171.53;;;20.25;46.64
71974;BME280;59840;52.122;5.404;2023-07-02T12:02:53;101177.13;;;20.01;50.45
71974;BME280;59840;52.122;5.404;2023-07-02T12:05:23;101177.31;;;19.77;47.99
71974;BME280;59840;52.122;5.404;2023-07-02T12:07:52;101174.44;;;19.60;45.29
71974;BME280;59840;52.122;5.404;2023-07-02T12:10:19;101180.03;;;19.45;48.01
71974;BME280;59840;52.122;5.404;2023-07-02T12:12:46;101181.63;;;19.46;47.47
71974;BME280;59840;52.122;5.404;2023-07-02T12:15:15;101184.72;;;19.39;47.79
71974;BME280;59840;52.122;5.404;2023-07-02T12:17:41;101179.44;;;19.34;47.75
71974;BME280;59840;52.122;5.404;2023-07-02T12:20:08;101194.31;;;19.40;49.23
71974;BME280;59840;52.122;5.404;2023-07-02T12:22:35;101191.09;;;19.57;48.36
71974;BME280;59840;52.122;5.404;2023-07-02T12:25:02;101182.28;;;19.84;47.36
71974;BME280;59840;52.122;5.404;2023-07-02T12:27:29;101194.00;;;19.88;46.16
71974;BME280;59840;52.122;5.404;2023-07-02T12:29:56;101197.47;;;19.74;47.05
71974;BME280;59840;52.122;5.404;2023-07-02T12:32:23;101188.84;;;19.64;48.89
71974;BME280;59840;52.122;5.404;2023-07-02T12:34:49;101193.28;;;19.55;47.58
71974;BME280;59840;52.122;5.404;2023-07-02T12:37:16;101198.94;;;19.67;48.56
71974;BME280;59840;52.122;5.404;2023-07-02T12:39:47;101182.97;;;19.89;47.44
71974;BME280;59840;52.122;5.404;2023-07-02T12:42:14;101178.94;;;20.05;46.65
71974;BME280;59840;52.122;5.404;2023-07-02T12:44:41;101181.88;;;20.18;45.81
71974;BME280;59840;52.122;5.404;2023-07-02T12:47:25;101181.47;;;20.38;47.13
71974;BME280;59840;52.122;5.404;2023-07-02T12:50:00;101187.97;;;20.59;46.32
71974;BME280;59840;52.122;5.404;2023-07-02T12:52:28;101192.91;;;20.66;46.02
71974;BME280;59840;52.122;5.404;2023-07-02T12:54:56;101196.47;;;20.75;47.85